Main page
METAR-TAF:

METAR-TAF

Airports :

Athens International Airport

Athens, Greece

latitude: 37-56N, longitude: 023-56E, elevation: 94 m

Current weather observation

The report was made 14 minutes ago, at 18:50 UTC
Wind 14 kt from the West
Temperature 18°C
Humidity 52%
Pressure 1012 hPa
Visibility 10 km or more
Few clouds at a height of 3000 ft

METAR: LGAV 211850Z 27014KT 9999 FEW030 18/08 Q1012 NOSIG

Time: 21:04 (19:04 UTC)

Forecast

The report was made 2 hours and 4 minutes ago, at 17:00 UTC
Forecast valid from 21 at 18 UTC to 22 at 18 UTC
Wind 12 kt from the West
Visibility 10 km or more
Few clouds at a height of 3500 ft
Scattered clouds at a height of 7000 ft
Becoming
from 22 at 07 UTC to 22 at 09 UTC
Wind 10 kt from the North/Northeast
Temporary
from 22 at 12 UTC to 22 at 18 UTC
Wind 12 kt from the North/Northeast with gusts up to 22 kt

TAF: LGAV 211700Z 2118/2218 28012KT 9999 FEW035 SCT070 BECMG 2207/2209 03010KT TEMPO 2212/2218 03012G22KT

Weather observations and forecasts of more than 4000 airports (METAR and TAF reports).

The available stations are represented by yellow and red dots on the map.

Hover mouse over dot to see the name of the station.

Then click to see weather observations and forecasts.

To change the map : click on the green buttons with a black cross to zoom in, on the green button with a dash to zoom out, or on the green arrows for adjacent maps.


METAR-TAF: